createdAt,value
2022-11-28T00:00:31.611Z,17.88
2022-11-28T00:01:52.810Z,16.73
2022-11-28T00:03:13.841Z,17.23
2022-11-28T00:04:34.825Z,21.67
2022-11-28T00:05:56.182Z,24.83
2022-11-28T00:07:17.298Z,40.38
2022-11-28T00:08:38.634Z,55.97
2022-11-28T00:09:59.753Z,43.40
2022-11-28T00:11:21.162Z,46.72
2022-11-28T00:12:42.288Z,55.13
2022-11-28T00:14:03.606Z,72.63
2022-11-28T00:15:24.465Z,43.05
2022-11-28T00:16:46.754Z,48.47
2022-11-28T00:18:07.662Z,32.03
2022-11-28T00:19:29.322Z,34.38
2022-11-28T00:20:50.493Z,20.38
2022-11-28T00:22:11.779Z,18.48
2022-11-28T00:23:33.965Z,19.83
2022-11-28T00:24:55.865Z,17.95
2022-11-28T00:26:26.006Z,14.77
2022-11-28T00:27:49.698Z,17.50
2022-11-28T00:29:11.632Z,16.83
2022-11-28T00:30:37.091Z,18.58
2022-11-28T00:31:58.127Z,18.30
2022-11-28T00:33:19.308Z,23.98
2022-11-28T00:34:40.715Z,30.00
2022-11-28T00:36:05.880Z,39.25
2022-11-28T00:37:27.052Z,38.63
2022-11-28T00:38:48.973Z,31.77
2022-11-28T00:40:10.253Z,32.55
2022-11-28T00:41:34.023Z,30.60
2022-11-28T00:42:55.099Z,26.23
2022-11-28T00:44:16.318Z,24.70
2022-11-28T00:45:37.459Z,26.83
2022-11-28T00:46:58.557Z,23.08
2022-11-28T00:48:19.679Z,21.13
2022-11-28T00:49:41.285Z,17.52
2022-11-28T00:51:15.497Z,19.38
2022-11-28T00:52:36.424Z,19.77
2022-11-28T00:53:59.695Z,22.13
2022-11-28T00:55:20.847Z,16.77
2022-11-28T00:56:41.978Z,17.67
2022-11-28T00:58:03.374Z,15.77
2022-11-28T00:59:24.458Z,13.80
2022-11-28T01:00:45.593Z,14.80
2022-11-28T01:02:06.760Z,18.58
2022-11-28T01:03:28.227Z,17.30
2022-11-28T01:04:49.405Z,19.63
2022-11-28T01:06:11.770Z,19.98
2022-11-28T01:07:33.434Z,20.10
2022-11-28T01:08:55.282Z,20.55
2022-11-28T01:10:16.278Z,19.80
2022-11-28T01:11:39.648Z,20.23
2022-11-28T01:13:00.387Z,20.45
2022-11-28T01:14:24.033Z,17.88
2022-11-28T01:15:45.287Z,19.17
2022-11-28T01:17:06.182Z,12.57
2022-11-28T01:18:27.107Z,16.88
2022-11-28T01:19:48.335Z,16.88
2022-11-28T01:21:09.919Z,15.75
2022-11-28T01:22:31.113Z,18.23
2022-11-28T01:23:52.245Z,14.30
2022-11-28T01:25:13.455Z,14.82
2022-11-28T01:26:35.349Z,12.80
2022-11-28T01:27:56.342Z,11.57
2022-11-28T01:29:17.481Z,14.57
2022-11-28T01:30:39.061Z,13.43
2022-11-28T01:31:59.930Z,14.38
2022-11-28T01:33:21.219Z,16.10
2022-11-28T01:34:42.725Z,17.50
2022-11-28T01:36:04.403Z,18.30
2022-11-28T01:37:25.253Z,17.50
2022-11-28T01:38:46.935Z,21.80
2022-11-28T01:40:10.572Z,20.42
2022-11-28T01:41:31.677Z,18.25
2022-11-28T01:42:52.909Z,16.73
2022-11-28T01:44:14.568Z,17.27
2022-11-28T01:45:36.221Z,16.67
2022-11-28T01:46:57.623Z,17.17
2022-11-28T01:48:23.580Z,12.13
2022-11-28T01:49:46.590Z,13.80
2022-11-28T01:51:10.266Z,15.93
2022-11-28T01:52:34.042Z,14.77
2022-11-28T01:53:55.968Z,13.50
2022-11-28T01:55:20.762Z,13.48
2022-11-28T01:56:56.662Z,15.50
2022-11-28T01:58:17.876Z,16.02
2022-11-28T02:00:02.698Z,16.10
2022-11-28T02:01:33.804Z,14.30
2022-11-28T02:03:10.448Z,16.55
2022-11-28T02:04:32.306Z,15.38
2022-11-28T02:05:54.066Z,13.23
2022-11-28T02:07:15.245Z,13.93
2022-11-28T02:08:37.098Z,12.75
2022-11-28T02:09:57.969Z,15.45
2022-11-28T02:11:26.990Z,14.63
2022-11-28T02:12:48.259Z,15.07
2022-11-28T02:14:24.681Z,15.98
2022-11-28T02:16:23.166Z,14.90
2022-11-28T02:17:53.013Z,16.42
2022-11-28T02:19:45.024Z,16.77
2022-11-28T02:21:31.010Z,16.70
2022-11-28T02:23:22.066Z,14.50
2022-11-28T02:24:49.119Z,14.80
2022-11-28T02:26:30.961Z,22.52
2022-11-28T02:28:10.036Z,21.50
2022-11-28T02:30:02.335Z,17.80
2022-11-28T02:32:10.158Z,34.63
2022-11-28T02:33:35.950Z,31.63
2022-11-28T02:35:12.179Z,25.10
2022-11-28T02:36:51.113Z,18.23
2022-11-28T02:38:44.145Z,17.25
2022-11-28T02:40:26.596Z,18.58
2022-11-28T02:41:56.691Z,15.85
2022-11-28T02:44:50.313Z,19.63
2022-11-28T02:46:22.172Z,19.27
2022-11-28T02:47:54.617Z,22.05
2022-11-28T02:49:37.098Z,22.52
2022-11-28T02:51:26.005Z,16.95
2022-11-28T02:52:55.699Z,16.98
2022-11-28T02:54:18.672Z,17.60
2022-11-28T02:55:41.523Z,15.50
2022-11-28T02:57:03.304Z,18.58
2022-11-28T02:58:24.262Z,14.13
2022-11-28T02:59:49.119Z,13.38
2022-11-28T03:01:20.970Z,14.75
2022-11-28T03:02:44.743Z,11.70
2022-11-28T03:04:08.735Z,11.35
2022-11-28T03:05:43.278Z,11.80
2022-11-28T03:07:19.337Z,13.77
2022-11-28T03:09:13.647Z,11.23
2022-11-28T03:10:56.317Z,10.45
2022-11-28T03:12:32.151Z,9.75
2022-11-28T03:14:01.781Z,9.20
2022-11-28T03:15:28.825Z,12.75
2022-11-28T03:17:15.057Z,8.98
2022-11-28T03:18:45.870Z,8.80
2022-11-28T03:20:22.230Z,9.48
2022-11-28T03:21:52.377Z,10.05
2022-11-28T03:23:21.086Z,8.43
2022-11-28T03:25:06.177Z,9.35
2022-11-28T03:26:35.135Z,10.70
2022-11-28T03:28:25.031Z,15.32
2022-11-28T03:29:54.645Z,17.17
2022-11-28T03:31:20.972Z,17.08
2022-11-28T03:32:43.613Z,21.13
2022-11-28T03:34:06.884Z,24.48
2022-11-28T03:35:33.105Z,24.45
2022-11-28T03:37:00.123Z,28.70
2022-11-28T03:38:36.378Z,39.00
2022-11-28T03:40:05.246Z,70.25
2022-11-28T03:41:54.675Z,43.40
2022-11-28T03:43:21.287Z,25.35
2022-11-28T03:44:52.001Z,18.75
2022-11-28T03:46:18.396Z,16.95
2022-11-28T03:47:44.570Z,14.07
2022-11-28T03:49:09.551Z,16.83
2022-11-28T03:50:40.958Z,16.33
2022-11-28T03:52:05.803Z,20.67
2022-11-28T03:53:34.863Z,21.20
2022-11-28T03:55:00.555Z,17.77
2022-11-28T03:56:37.526Z,21.17
2022-11-28T03:58:09.762Z,17.52
2022-11-28T03:59:49.423Z,15.70
2022-11-28T04:01:25.825Z,13.32
2022-11-28T04:03:03.861Z,20.10
2022-11-28T04:04:50.872Z,25.50
2022-11-28T04:06:24.127Z,25.15
2022-11-28T04:07:47.959Z,30.30
2022-11-28T04:09:18.122Z,31.50
2022-11-28T04:10:44.584Z,23.73
2022-11-28T04:12:34.992Z,18.92
2022-11-28T04:14:06.867Z,14.88
2022-11-28T04:15:56.441Z,18.52
2022-11-28T04:17:32.622Z,18.20
2022-11-28T04:19:24.442Z,14.45
2022-11-28T04:20:49.623Z,15.55
2022-11-28T04:22:31.784Z,21.02
2022-11-28T04:23:57.013Z,22.02
2022-11-28T04:25:21.688Z,23.85
2022-11-28T04:26:51.817Z,25.08
2022-11-28T04:28:18.649Z,20.42
2022-11-28T04:29:46.273Z,22.73
2022-11-28T04:31:10.043Z,20.52
2022-11-28T04:32:36.568Z,25.80
2022-11-28T04:34:02.232Z,24.77
2022-11-28T04:35:31.459Z,34.97
2022-11-28T04:36:54.349Z,34.33
2022-11-28T04:38:16.310Z,29.90
2022-11-28T04:39:40.857Z,26.02
2022-11-28T04:41:10.685Z,21.98
2022-11-28T04:42:42.472Z,19.70
2022-11-28T04:44:13.310Z,21.40
2022-11-28T04:45:46.655Z,14.68
2022-11-28T04:47:08.305Z,13.48
2022-11-28T04:48:34.111Z,13.05
2022-11-28T04:49:55.639Z,12.63
2022-11-28T04:51:32.270Z,14.85
2022-11-28T04:53:10.073Z,14.15
2022-11-28T04:54:31.211Z,11.70
2022-11-28T04:56:01.717Z,13.45
2022-11-28T04:57:36.745Z,10.88
2022-11-28T04:58:58.668Z,12.00
2022-11-28T05:00:21.626Z,13.32
2022-11-28T05:01:46.816Z,17.13
2022-11-28T05:03:09.817Z,17.15
2022-11-28T05:04:31.182Z,21.75
2022-11-28T05:05:52.319Z,20.40
2022-11-28T05:07:14.088Z,21.63
2022-11-28T05:08:35.258Z,26.00
2022-11-28T05:09:57.780Z,45.20
2022-11-28T05:11:19.005Z,38.72
2022-11-28T05:12:40.266Z,36.70
2022-11-28T05:14:01.293Z,40.95
2022-11-28T05:15:22.562Z,31.80
2022-11-28T05:16:43.660Z,24.27
2022-11-28T05:18:05.665Z,21.90
2022-11-28T05:19:26.753Z,18.02
2022-11-28T05:20:48.648Z,16.55
2022-11-28T05:22:09.827Z,14.90
2022-11-28T05:23:30.864Z,22.73
2022-11-28T05:24:52.370Z,26.00
2022-11-28T05:26:17.463Z,27.58
2022-11-28T05:27:38.644Z,28.17
2022-11-28T05:28:59.842Z,28.75
2022-11-28T05:30:21.297Z,25.50
2022-11-28T05:31:42.748Z,35.70
2022-11-28T05:33:03.819Z,41.92
2022-11-28T05:34:25.042Z,47.42
2022-11-28T05:35:45.989Z,53.15
2022-11-28T05:37:07.168Z,55.55
2022-11-28T05:38:28.281Z,52.30
2022-11-28T05:39:49.521Z,46.35
2022-11-28T05:41:18.652Z,43.33
2022-11-28T05:42:42.453Z,42.05
2022-11-28T05:44:03.580Z,32.20
2022-11-28T05:45:24.704Z,32.22
2022-11-28T05:46:46.078Z,29.40
2022-11-28T05:48:07.340Z,32.70
2022-11-28T05:49:28.979Z,21.52
2022-11-28T05:50:50.958Z,16.83
2022-11-28T05:52:12.516Z,21.65
2022-11-28T05:53:33.649Z,26.33
2022-11-28T05:54:54.661Z,33.67
2022-11-28T05:56:18.030Z,34.38
2022-11-28T05:57:39.033Z,30.48
2022-11-28T05:59:00.230Z,33.65
2022-11-28T06:00:21.515Z,35.78
2022-11-28T06:01:42.381Z,33.08
2022-11-28T06:03:04.789Z,25.38
2022-11-28T06:04:25.572Z,32.05
2022-11-28T06:05:46.892Z,36.10
2022-11-28T06:07:08.745Z,33.00
2022-11-28T06:08:29.778Z,43.60
2022-11-28T06:09:50.787Z,61.30
2022-11-28T06:11:14.590Z,46.67
2022-11-28T06:12:35.419Z,38.58
2022-11-28T06:13:56.908Z,37.17
2022-11-28T06:15:17.746Z,29.70
2022-11-28T06:16:38.929Z,30.20
2022-11-28T06:18:00.149Z,46.42
2022-11-28T06:19:21.413Z,60.90
2022-11-28T06:20:42.691Z,43.45
2022-11-28T06:22:04.302Z,71.68
2022-11-28T06:23:25.387Z,77.72
2022-11-28T06:24:46.641Z,61.22
2022-11-28T06:26:13.099Z,66.28
2022-11-28T06:27:35.742Z,71.40
2022-11-28T06:28:57.278Z,128.77
2022-11-28T06:30:18.354Z,99.60
2022-11-28T06:31:39.600Z,54.47
2022-11-28T06:33:01.121Z,55.40
2022-11-28T06:34:23.087Z,73.70
2022-11-28T06:35:44.160Z,57.60
2022-11-28T06:37:05.367Z,48.97
2022-11-28T06:38:28.410Z,32.75
2022-11-28T06:39:51.247Z,45.13
2022-11-28T06:41:15.532Z,49.25
2022-11-28T06:42:37.327Z,45.20
2022-11-28T06:44:02.821Z,55.40
2022-11-28T06:45:24.120Z,53.63
2022-11-28T06:46:45.213Z,55.40
2022-11-28T06:48:06.483Z,60.95
2022-11-28T06:49:27.510Z,70.05
2022-11-28T06:50:48.868Z,74.25
2022-11-28T06:52:09.969Z,53.58
2022-11-28T06:53:31.835Z,45.83
2022-11-28T06:54:53.094Z,87.55
2022-11-28T06:56:16.929Z,52.78
2022-11-28T06:57:39.374Z,58.35
2022-11-28T06:59:01.253Z,64.45
2022-11-28T07:00:22.170Z,50.20
2022-11-28T07:01:43.389Z,50.58
2022-11-28T07:03:04.945Z,40.58
2022-11-28T07:04:26.021Z,32.45
2022-11-28T07:05:48.185Z,37.78
2022-11-28T07:07:13.665Z,31.23
2022-11-28T07:08:38.137Z,31.02
2022-11-28T07:09:58.949Z,34.10
2022-11-28T07:11:28.505Z,48.90
2022-11-28T07:12:59.295Z,69.35
2022-11-28T07:14:22.391Z,67.18
2022-11-28T07:15:51.086Z,77.05
2022-11-28T07:17:12.314Z,65.25
2022-11-28T07:18:33.764Z,36.60
2022-11-28T07:19:55.503Z,41.20
2022-11-28T07:21:18.114Z,35.42
2022-11-28T07:22:39.295Z,33.03
2022-11-28T07:24:00.536Z,35.22
2022-11-28T07:25:21.646Z,34.97
2022-11-28T07:26:42.779Z,45.35
2022-11-28T07:28:04.087Z,46.45
2022-11-28T07:29:25.130Z,67.47
2022-11-28T07:30:46.200Z,41.83
2022-11-28T07:32:08.109Z,39.53
2022-11-28T07:33:29.686Z,36.13
2022-11-28T07:34:50.535Z,48.85
2022-11-28T07:36:15.415Z,21.20
2022-11-28T07:37:36.519Z,24.77
2022-11-28T07:39:02.712Z,26.27
2022-11-28T07:40:24.028Z,20.83
2022-11-28T07:41:45.563Z,25.33
2022-11-28T07:43:06.315Z,26.10
2022-11-28T07:44:27.738Z,23.98
2022-11-28T07:46:00.485Z,20.85
2022-11-28T07:47:22.749Z,25.80
2022-11-28T07:48:44.543Z,24.02
2022-11-28T07:50:06.206Z,26.38
2022-11-28T07:51:30.265Z,21.02
2022-11-28T07:52:51.953Z,27.55
2022-11-28T07:54:12.897Z,23.10
2022-11-28T07:55:36.448Z,21.13
2022-11-28T07:57:11.755Z,18.13
2022-11-28T07:58:35.329Z,18.80
2022-11-28T07:59:56.150Z,16.08
2022-11-28T08:01:19.768Z,19.23
2022-11-28T08:02:40.910Z,19.60
2022-11-28T08:04:05.441Z,22.42
2022-11-28T08:05:27.717Z,31.48
2022-11-28T08:06:49.110Z,31.05
2022-11-28T08:08:10.267Z,27.27
2022-11-28T08:09:32.667Z,24.80
2022-11-28T08:10:59.078Z,23.95
2022-11-28T08:12:20.423Z,17.67
2022-11-28T08:13:42.277Z,22.08
2022-11-28T08:15:03.812Z,22.55
2022-11-28T08:16:26.908Z,28.13
2022-11-28T08:17:48.062Z,21.08
2022-11-28T08:19:09.185Z,20.88
2022-11-28T08:20:30.190Z,12.13
2022-11-28T08:21:51.353Z,14.25
2022-11-28T08:23:12.695Z,14.73
2022-11-28T08:24:33.590Z,12.48
2022-11-28T08:25:54.942Z,11.73
2022-11-28T08:27:15.739Z,11.90
2022-11-28T08:28:37.110Z,13.43
2022-11-28T08:29:58.180Z,19.75
2022-11-28T08:31:22.547Z,21.77
2022-11-28T08:32:43.746Z,37.63
2022-11-28T08:34:08.246Z,22.73
2022-11-28T08:35:29.467Z,22.77
2022-11-28T08:36:50.862Z,27.27
2022-11-28T08:38:12.130Z,24.48
2022-11-28T08:39:34.091Z,37.90
2022-11-28T08:41:04.914Z,39.38
2022-11-28T08:42:25.878Z,44.17
2022-11-28T08:43:47.148Z,73.65
2022-11-28T08:45:11.145Z,103.20
2022-11-28T08:46:32.727Z,80.05
2022-11-28T08:47:53.870Z,65.00
2022-11-28T08:49:14.956Z,73.95
2022-11-28T08:50:36.293Z,72.85
2022-11-28T08:51:57.396Z,138.90
2022-11-28T08:53:18.800Z,53.72
2022-11-28T08:54:41.098Z,34.72
2022-11-28T08:56:02.254Z,41.97
2022-11-28T08:57:23.466Z,43.13
2022-11-28T08:58:45.134Z,80.35
2022-11-28T09:00:08.718Z,103.97
2022-11-28T09:01:31.024Z,46.30
2022-11-28T09:02:52.471Z,9.68
2022-11-28T09:04:13.459Z,23.40
2022-11-28T09:05:34.893Z,67.82
2022-11-28T09:06:55.939Z,28.10
2022-11-28T09:08:18.802Z,23.25
2022-11-28T09:09:39.961Z,15.13
2022-11-28T09:11:01.157Z,73.60
2022-11-28T09:12:22.530Z,73.63
2022-11-28T09:13:43.845Z,42.95
2022-11-28T09:15:05.667Z,26.50
2022-11-28T09:16:26.931Z,18.55
2022-11-28T09:17:48.442Z,27.23
2022-11-28T09:19:10.825Z,33.90
2022-11-28T09:20:32.910Z,24.38
2022-11-28T09:21:57.671Z,14.43
2022-11-28T09:23:19.180Z,38.25
2022-11-28T09:24:40.272Z,42.08
2022-11-28T09:26:01.278Z,30.42
2022-11-28T09:27:22.551Z,41.47
2022-11-28T09:28:44.309Z,30.95
2022-11-28T09:30:06.284Z,42.22
2022-11-28T09:31:27.386Z,18.58
2022-11-28T09:32:50.054Z,19.20
2022-11-28T09:34:11.279Z,16.75
2022-11-28T09:35:32.389Z,14.50
2022-11-28T09:36:53.509Z,15.52
2022-11-28T09:38:14.612Z,21.33
2022-11-28T09:39:57.039Z,21.67
2022-11-28T09:41:43.245Z,33.60
2022-11-28T09:43:15.336Z,23.80
2022-11-28T09:44:45.529Z,38.63
2022-11-28T09:46:13.616Z,26.55
2022-11-28T09:47:37.354Z,32.72
2022-11-28T09:49:02.733Z,42.35
2022-11-28T09:50:34.620Z,23.52
2022-11-28T09:52:15.522Z,41.58
2022-11-28T09:53:50.825Z,42.13
2022-11-28T09:55:14.666Z,38.47
2022-11-28T09:56:36.053Z,22.55
2022-11-28T09:57:58.015Z,32.53
2022-11-28T09:59:29.029Z,32.08
2022-11-28T10:01:23.043Z,26.00
2022-11-28T10:02:58.554Z,24.65
2022-11-28T10:04:48.426Z,26.85
2022-11-28T10:06:26.050Z,28.08
2022-11-28T10:07:54.624Z,25.25
2022-11-28T10:09:35.191Z,10.55
2022-11-28T10:11:04.683Z,15.15
2022-11-28T10:14:26.858Z,11.73
2022-11-28T10:16:12.373Z,20.35
2022-11-28T10:17:44.419Z,13.55
2022-11-28T10:19:20.645Z,12.20
2022-11-28T10:20:59.310Z,19.45
2022-11-28T10:22:31.435Z,19.88
2022-11-28T10:23:58.470Z,16.77
2022-11-28T10:25:36.258Z,14.77
2022-11-28T10:27:04.424Z,24.40
2022-11-28T10:28:41.557Z,45.45
2022-11-28T10:30:12.630Z,29.63
2022-11-28T10:31:44.783Z,20.42
2022-11-28T10:33:14.663Z,21.40
2022-11-28T10:34:45.492Z,14.82
2022-11-28T10:36:07.125Z,23.25
2022-11-28T10:37:32.948Z,16.17
2022-11-28T10:38:53.868Z,19.50
2022-11-28T10:40:36.070Z,22.17
2022-11-28T10:42:14.149Z,23.73
2022-11-28T10:43:46.768Z,29.92
2022-11-28T10:45:41.737Z,40.40
2022-11-28T10:47:24.624Z,50.33
2022-11-28T10:48:47.982Z,22.92
2022-11-28T10:50:46.393Z,37.25
2022-11-28T10:53:05.844Z,31.75
2022-11-28T10:54:55.068Z,47.85
2022-11-28T10:56:51.140Z,22.98
2022-11-28T10:58:44.550Z,17.35
2022-11-28T11:00:14.057Z,16.88
2022-11-28T11:01:43.761Z,16.67
2022-11-28T11:03:13.776Z,13.05
2022-11-28T11:04:38.010Z,14.73
2022-11-28T11:06:00.163Z,19.67
2022-11-28T11:07:29.691Z,24.83
2022-11-28T11:08:50.985Z,40.38
2022-11-28T11:10:22.962Z,60.25
2022-11-28T11:11:55.311Z,66.15
2022-11-28T11:13:23.682Z,62.15
2022-11-28T11:14:44.860Z,44.47
2022-11-28T11:16:11.675Z,51.65
2022-11-28T11:17:36.641Z,39.63
2022-11-28T11:18:58.039Z,20.48
2022-11-28T11:20:27.440Z,33.00
2022-11-28T11:22:02.432Z,63.45
2022-11-28T11:23:23.365Z,84.65
2022-11-28T11:24:44.880Z,81.25
2022-11-28T11:26:10.189Z,57.10
2022-11-28T11:27:32.142Z,51.78
2022-11-28T11:28:53.385Z,39.17
2022-11-28T11:30:18.371Z,32.58
2022-11-28T11:31:44.347Z,95.15
2022-11-28T11:33:12.398Z,41.17
2022-11-28T11:34:44.894Z,70.45
2022-11-28T11:36:24.258Z,41.00
2022-11-28T11:37:45.275Z,40.58
2022-11-28T11:39:08.173Z,29.35
2022-11-28T11:40:29.643Z,23.58
2022-11-28T11:42:10.569Z,21.70
2022-11-28T11:43:35.816Z,37.30
2022-11-28T11:44:57.887Z,21.75
2022-11-28T11:46:18.744Z,17.10
2022-11-28T11:47:42.763Z,20.17
2022-11-28T11:49:03.751Z,19.33
2022-11-28T11:50:27.767Z,18.35
2022-11-28T11:51:56.865Z,20.98
2022-11-28T11:53:19.262Z,23.10
2022-11-28T11:54:52.555Z,20.27
2022-11-28T11:56:14.979Z,14.00
2022-11-28T11:57:42.664Z,21.00
2022-11-28T11:59:13.756Z,78.97
2022-11-28T12:00:42.166Z,30.27
2022-11-28T12:02:19.617Z,67.40
2022-11-28T12:03:52.339Z,70.55
2022-11-28T12:05:21.724Z,118.80
2022-11-28T12:06:48.885Z,46.05
2022-11-28T12:08:25.701Z,23.08
2022-11-28T12:09:49.635Z,27.33
2022-11-28T12:11:18.809Z,33.83
2022-11-28T12:12:42.037Z,37.15
2022-11-28T12:14:35.357Z,26.50
2022-11-28T12:16:17.806Z,53.40
2022-11-28T12:17:50.061Z,37.63
2022-11-28T12:19:17.820Z,53.80
2022-11-28T12:20:53.933Z,43.42
2022-11-28T12:22:50.609Z,47.78
2022-11-28T12:24:21.051Z,22.52
2022-11-28T12:26:00.099Z,35.65
2022-11-28T12:27:33.292Z,15.77
2022-11-28T12:29:13.060Z,36.83
2022-11-28T12:30:57.623Z,46.25
2022-11-28T12:32:32.589Z,29.48
2022-11-28T12:34:30.732Z,20.02
2022-11-28T12:36:46.606Z,28.13
2022-11-28T12:38:26.148Z,12.77
2022-11-28T12:40:05.893Z,59.95
2022-11-28T12:41:38.293Z,33.72
2022-11-28T12:43:05.178Z,22.50
2022-11-28T12:45:04.131Z,42.80
2022-11-28T12:46:24.994Z,36.47
2022-11-28T12:48:01.781Z,45.17
2022-11-28T12:49:22.642Z,33.08
2022-11-28T12:50:47.985Z,40.80
2022-11-28T12:52:21.375Z,42.72
2022-11-28T12:54:28.847Z,37.03
2022-11-28T12:55:55.743Z,33.40
2022-11-28T12:59:19.131Z,28.02
2022-11-28T13:01:25.276Z,30.85
2022-11-28T13:03:14.451Z,15.32
2022-11-28T13:04:53.052Z,14.80
2022-11-28T13:06:36.795Z,14.88
2022-11-28T13:08:25.768Z,13.52
2022-11-28T13:10:12.893Z,33.75
2022-11-28T13:11:49.890Z,56.65
2022-11-28T13:13:19.570Z,42.45
2022-11-28T13:15:03.132Z,36.22
2022-11-28T13:16:47.745Z,18.05
2022-11-28T13:18:34.815Z,21.77
2022-11-28T13:20:21.491Z,18.38
2022-11-28T13:22:04.839Z,35.05
2022-11-28T13:23:36.623Z,104.20
2022-11-28T13:25:35.311Z,58.15
2022-11-28T13:27:33.319Z,31.88
2022-11-28T13:29:27.924Z,44.38
2022-11-28T13:31:24.631Z,258.42
2022-11-28T13:32:48.030Z,45.17
2022-11-28T13:34:15.912Z,24.45
2022-11-28T13:35:46.523Z,24.40
2022-11-28T13:39:13.273Z,28.60
2022-11-28T13:40:49.930Z,32.92
2022-11-28T13:44:42.187Z,57.08
2022-11-28T13:46:04.521Z,63.33
2022-11-28T13:47:29.865Z,48.90
2022-11-28T13:49:13.774Z,26.17
2022-11-28T13:50:39.399Z,45.72
2022-11-28T13:52:18.728Z,50.92
2022-11-28T13:53:41.380Z,60.20
2022-11-28T13:55:02.581Z,43.90
2022-11-28T13:56:27.145Z,59.35
2022-11-28T13:57:48.964Z,58.83
2022-11-28T13:59:19.570Z,62.30
2022-11-28T14:00:40.727Z,86.93
2022-11-28T14:02:05.264Z,83.78
2022-11-28T14:03:28.723Z,61.40
2022-11-28T14:04:50.539Z,60.45
2022-11-28T14:06:14.819Z,51.58
2022-11-28T14:07:36.649Z,51.88
2022-11-28T14:09:18.285Z,49.05
2022-11-28T14:11:07.380Z,51.45
2022-11-28T14:12:51.788Z,68.28
2022-11-28T14:14:27.714Z,75.63
2022-11-28T14:16:15.462Z,87.15
2022-11-28T14:17:49.424Z,81.82
2022-11-28T14:19:44.728Z,96.22
2022-11-28T14:21:20.247Z,106.28
2022-11-28T14:22:46.770Z,48.83
2022-11-28T14:24:33.962Z,37.63
2022-11-28T14:25:56.531Z,35.95
2022-11-28T14:27:28.273Z,42.42
2022-11-28T14:28:49.880Z,39.53
2022-11-28T14:30:26.557Z,89.00
2022-11-28T14:32:13.786Z,68.97
2022-11-28T14:33:42.622Z,95.32
2022-11-28T14:35:06.725Z,95.40
2022-11-28T14:36:33.786Z,81.00
2022-11-28T14:37:55.598Z,74.75
2022-11-28T14:39:17.145Z,79.35
2022-11-28T14:40:59.676Z,84.68
2022-11-28T14:42:59.079Z,76.00
2022-11-28T14:44:45.545Z,72.15
2022-11-28T14:46:16.059Z,48.33
2022-11-28T14:47:42.858Z,38.00
2022-11-28T14:49:17.079Z,74.93
2022-11-28T14:50:38.098Z,63.53
2022-11-28T14:52:41.598Z,108.10
2022-11-28T14:54:04.665Z,110.88
2022-11-28T14:55:26.100Z,76.57
2022-11-28T14:56:47.186Z,120.80
2022-11-28T14:58:16.543Z,112.38
2022-11-28T14:59:42.267Z,53.67
2022-11-28T15:01:16.555Z,68.57
2022-11-28T15:02:52.847Z,101.28
2022-11-28T15:04:45.047Z,92.43
2022-11-28T15:06:23.560Z,98.15
2022-11-28T15:07:59.786Z,100.28
2022-11-28T15:09:21.304Z,100.10
2022-11-28T15:10:57.805Z,84.22
2022-11-28T15:12:26.585Z,65.50
2022-11-28T15:15:13.915Z,139.77
2022-11-28T15:16:41.092Z,246.60
2022-11-28T15:18:06.475Z,112.47
2022-11-28T15:19:43.241Z,105.80
2022-11-28T15:21:11.611Z,97.30
2022-11-28T15:22:43.725Z,111.45
2022-11-28T15:24:16.304Z,122.15
2022-11-28T15:25:38.153Z,206.93
2022-11-28T15:27:21.518Z,358.25
2022-11-28T15:28:43.645Z,263.05
2022-11-28T15:30:26.756Z,219.73
2022-11-28T15:31:50.365Z,170.70
2022-11-28T15:33:13.204Z,162.82
2022-11-28T15:34:37.413Z,167.10
2022-11-28T15:36:11.177Z,165.30
2022-11-28T15:37:34.728Z,161.23
2022-11-28T15:38:57.692Z,120.50
2022-11-28T15:40:31.628Z,120.60
2022-11-28T15:41:52.894Z,110.18
2022-11-28T15:43:14.818Z,105.22
2022-11-28T15:44:37.794Z,97.13
2022-11-28T15:46:02.730Z,98.55
2022-11-28T15:47:24.628Z,100.28
2022-11-28T15:48:52.466Z,121.68
2022-11-28T15:50:17.905Z,101.45
2022-11-28T15:51:39.136Z,101.28
2022-11-28T15:53:03.558Z,103.28
2022-11-28T15:54:42.258Z,91.43
2022-11-28T15:56:13.734Z,116.88
2022-11-28T15:57:35.134Z,197.23
2022-11-28T15:58:56.470Z,229.90
2022-11-28T16:00:21.933Z,243.40
2022-11-28T16:01:42.986Z,265.17
2022-11-28T16:03:07.369Z,249.55
2022-11-28T16:04:30.792Z,330.83
2022-11-28T16:05:54.351Z,276.35
2022-11-28T16:07:16.292Z,244.45
2022-11-28T16:08:49.193Z,224.77
2022-11-28T16:10:48.773Z,197.60
2022-11-28T16:12:14.370Z,161.85
2022-11-28T16:13:38.317Z,193.73
2022-11-28T16:15:04.801Z,387.77
2022-11-28T16:16:29.968Z,291.30
2022-11-28T16:17:54.158Z,269.92
2022-11-28T16:19:28.310Z,313.58
2022-11-28T16:20:49.617Z,274.73
2022-11-28T16:22:17.239Z,280.42
2022-11-28T16:23:38.577Z,261.52
2022-11-28T16:25:23.418Z,213.45
2022-11-28T16:26:54.305Z,115.47
2022-11-28T16:28:33.979Z,106.82
2022-11-28T16:31:23.837Z,88.85
2022-11-28T16:32:45.049Z,105.68
2022-11-28T16:34:12.187Z,120.45
2022-11-28T16:35:41.710Z,167.75
2022-11-28T16:37:11.932Z,113.78
2022-11-28T16:38:33.350Z,120.05
2022-11-28T16:40:13.230Z,132.27
2022-11-28T16:42:56.608Z,99.60
2022-11-28T16:44:22.321Z,116.18
2022-11-28T16:45:43.369Z,115.75
2022-11-28T16:47:04.218Z,109.80
2022-11-28T16:48:28.761Z,100.40
2022-11-28T16:50:16.404Z,115.22
2022-11-28T16:51:40.004Z,164.23
2022-11-28T16:53:02.605Z,169.75
2022-11-28T16:54:30.249Z,138.00
2022-11-28T16:55:51.533Z,143.95
2022-11-28T16:57:17.341Z,124.15
2022-11-28T16:58:38.153Z,155.63
2022-11-28T16:59:59.776Z,176.00
2022-11-28T17:01:21.739Z,161.80
2022-11-28T17:02:42.945Z,163.80
2022-11-28T17:04:04.802Z,111.40
2022-11-28T17:05:25.815Z,170.10
2022-11-28T17:06:47.074Z,120.75
2022-11-28T17:08:08.440Z,134.48
2022-11-28T17:09:34.008Z,186.98
2022-11-28T17:10:58.175Z,130.45
2022-11-28T17:12:34.252Z,130.88
2022-11-28T17:13:57.654Z,135.23
2022-11-28T17:15:21.986Z,164.13
2022-11-28T17:16:43.162Z,118.85
2022-11-28T17:18:04.213Z,102.28
2022-11-28T17:19:29.277Z,112.95
2022-11-28T17:20:51.025Z,85.97
2022-11-28T17:22:17.314Z,85.25
2022-11-28T17:23:39.063Z,107.28
2022-11-28T17:25:01.750Z,90.38
2022-11-28T17:26:22.755Z,92.93
2022-11-28T17:27:44.702Z,105.97
2022-11-28T17:29:07.654Z,217.98
2022-11-28T17:30:28.928Z,145.95
2022-11-28T17:31:50.330Z,142.20
2022-11-28T17:33:16.594Z,120.97
2022-11-28T17:34:37.785Z,104.85
2022-11-28T17:36:00.317Z,112.50
2022-11-28T17:37:21.079Z,113.82
2022-11-28T17:38:42.472Z,122.75
2022-11-28T17:40:22.101Z,151.48
2022-11-28T17:41:43.341Z,173.13
2022-11-28T17:43:04.958Z,166.13
2022-11-28T17:44:29.411Z,180.63
2022-11-28T17:45:50.855Z,172.43
2022-11-28T17:47:12.169Z,164.90
2022-11-28T17:48:33.214Z,190.98
2022-11-28T17:49:54.246Z,204.98
2022-11-28T17:51:15.358Z,211.30
2022-11-28T17:52:37.844Z,209.45
2022-11-28T17:53:58.783Z,174.23
2022-11-28T17:55:20.937Z,151.10
2022-11-28T17:56:42.559Z,151.93
2022-11-28T17:58:03.440Z,118.30
2022-11-28T17:59:27.029Z,134.43
2022-11-28T18:00:48.976Z,139.57
2022-11-28T18:02:11.098Z,127.20
2022-11-28T18:03:32.466Z,90.15
2022-11-28T18:04:53.701Z,91.88
2022-11-28T18:06:18.503Z,96.63
2022-11-28T18:07:40.170Z,145.65
2022-11-28T18:09:11.615Z,96.75
2022-11-28T18:10:33.289Z,68.72
2022-11-28T18:11:54.498Z,52.67
2022-11-28T18:13:17.443Z,66.45
2022-11-28T18:14:39.935Z,48.80
2022-11-28T18:16:02.921Z,89.45
2022-11-28T18:17:23.803Z,111.75
2022-11-28T18:18:45.792Z,88.78
2022-11-28T18:20:07.927Z,130.30
2022-11-28T18:21:29.450Z,132.35
2022-11-28T18:22:50.426Z,121.30
2022-11-28T18:24:11.909Z,82.80
2022-11-28T18:25:35.817Z,76.25
2022-11-28T18:26:57.117Z,60.25
2022-11-28T18:28:20.517Z,80.90
2022-11-28T18:29:42.569Z,168.18
2022-11-28T18:31:18.743Z,107.80
2022-11-28T18:32:39.960Z,160.18
2022-11-28T18:34:03.777Z,97.22
2022-11-28T18:35:27.356Z,120.40
2022-11-28T18:36:48.726Z,114.53
2022-11-28T18:38:11.955Z,270.60
2022-11-28T18:39:33.458Z,106.07
2022-11-28T18:40:54.395Z,61.22
2022-11-28T18:42:15.596Z,49.35
2022-11-28T18:43:37.130Z,37.28
2022-11-28T18:44:58.641Z,41.47
2022-11-28T18:46:19.890Z,42.65
2022-11-28T18:47:42.085Z,57.55
2022-11-28T18:49:03.426Z,60.75
2022-11-28T18:50:24.979Z,56.85
2022-11-28T18:51:46.177Z,41.75
2022-11-28T18:53:07.208Z,66.22
2022-11-28T18:54:31.066Z,44.55